BEL5CN EBBR-EGBB
Flight info
| Callsign | BEL5CN |
|---|---|
| Flight time | 0h 49m |
| Altitude | 38000 |
| Route | DENUT L610 HEMEL |
| Aircraft | A319/M-SDE3FGHIRWY/LB1 |
Departure
| Time | 2026-05-06 10:02 |
|---|---|
| Airport | Brussels Airport (EBBR) |
Arrival
| Time | 2026-05-06 10:51 |
|---|---|
| Airport | Birmingham Airport (EGBB) |
| Time | Latitude | Longitude | Altitude | Speed | Heading |
|---|---|---|---|---|---|
| 2026-05-06 09:37 | 50.90136 | 4.48954 | 144 ft | 0 kts | 156° |
| 2026-05-06 09:52 | 50.90142 | 4.48950 | 144 ft | 2 kts | 156° |
| 2026-05-06 09:53 | 50.90155 | 4.48940 | 143 ft | 2 kts | 156° |
| 2026-05-06 09:53 | 50.90169 | 4.48930 | 142 ft | 2 kts | 156° |
| 2026-05-06 09:53 | 50.90183 | 4.48920 | 141 ft | 2 kts | 156° |
| 2026-05-06 09:53 | 50.90192 | 4.48914 | 140 ft | 0 kts | 156° |
| 2026-05-06 09:54 | 50.90202 | 4.48904 | 139 ft | 2 kts | 112° |
| 2026-05-06 09:54 | 50.90203 | 4.48885 | 139 ft | 0 kts | 71° |
| 2026-05-06 09:54 | 50.90200 | 4.48876 | 139 ft | 1 kts | 64° |
| 2026-05-06 09:54 | 50.90199 | 4.48873 | 139 ft | 0 kts | 65° |
| 2026-05-06 09:57 | 50.90200 | 4.48876 | 139 ft | 1 kts | 66° |
| 2026-05-06 09:57 | 50.90206 | 4.48897 | 139 ft | 3 kts | 67° |
| 2026-05-06 09:57 | 50.90219 | 4.48944 | 139 ft | 6 kts | 66° |
| 2026-05-06 09:58 | 50.90241 | 4.49019 | 139 ft | 8 kts | 66° |
| 2026-05-06 09:58 | 50.90270 | 4.49120 | 141 ft | 10 kts | 66° |
| 2026-05-06 09:58 | 50.90302 | 4.49232 | 141 ft | 12 kts | 66° |
| 2026-05-06 09:58 | 50.90343 | 4.49376 | 139 ft | 16 kts | 66° |
| 2026-05-06 09:59 | 50.90390 | 4.49539 | 134 ft | 14 kts | 65° |
| 2026-05-06 09:59 | 50.90478 | 4.49601 | 129 ft | 16 kts | 14° |
| 2026-05-06 09:59 | 50.90606 | 4.49653 | 123 ft | 21 kts | 14° |
| 2026-05-06 09:59 | 50.90734 | 4.49706 | 117 ft | 20 kts | 15° |
| 2026-05-06 10:00 | 50.90882 | 4.49766 | 112 ft | 21 kts | 16° |
| 2026-05-06 10:00 | 50.90993 | 4.49874 | 107 ft | 20 kts | 38° |
| 2026-05-06 10:00 | 50.91082 | 4.49939 | 105 ft | 12 kts | 24° |
| 2026-05-06 10:00 | 50.91139 | 4.49903 | 104 ft | 9 kts | 269° |
| 2026-05-06 10:01 | 50.91116 | 4.49800 | 105 ft | 10 kts | 246° |
| 2026-05-06 10:01 | 50.91069 | 4.49640 | 105 ft | 35 kts | 245° |
| 2026-05-06 10:01 | 50.90853 | 4.48887 | 108 ft | 113 kts | 245° |
| 2026-05-06 10:01 | 50.90446 | 4.47455 | 257 ft | 160 kts | 250° |
| 2026-05-06 10:02 | 50.89996 | 4.45829 | 941 ft | 165 kts | 254° |
| 2026-05-06 10:02 | 50.89962 | 4.44135 | 1681 ft | 156 kts | 300° |
| 2026-05-06 10:02 | 50.90522 | 4.42681 | 2326 ft | 161 kts | 312° |
| 2026-05-06 10:02 | 50.91202 | 4.41184 | 2853 ft | 178 kts | 308° |
| 2026-05-06 10:03 | 50.91660 | 4.39236 | 3378 ft | 202 kts | 285° |
| 2026-05-06 10:03 | 50.91848 | 4.36919 | 3919 ft | 222 kts | 280° |
| 2026-05-06 10:03 | 50.92013 | 4.34388 | 4428 ft | 245 kts | 279° |
| 2026-05-06 10:03 | 50.92221 | 4.31605 | 5056 ft | 263 kts | 280° |
| 2026-05-06 10:04 | 50.92661 | 4.28768 | 5780 ft | 272 kts | 296° |
| 2026-05-06 10:04 | 50.93621 | 4.26223 | 6751 ft | 272 kts | 310° |
| 2026-05-06 10:04 | 50.94780 | 4.23875 | 7733 ft | 274 kts | 311° |
| 2026-05-06 10:04 | 50.95978 | 4.21520 | 8646 ft | 279 kts | 311° |
| 2026-05-06 10:05 | 50.97194 | 4.19129 | 9540 ft | 283 kts | 311° |
| 2026-05-06 10:05 | 50.98421 | 4.16700 | 10413 ft | 290 kts | 310° |
| 2026-05-06 10:05 | 50.99709 | 4.14139 | 10971 ft | 307 kts | 310° |
| 2026-05-06 10:05 | 51.01076 | 4.11408 | 11430 ft | 325 kts | 310° |
| 2026-05-06 10:06 | 51.02508 | 4.08540 | 11891 ft | 342 kts | 310° |
| 2026-05-06 10:06 | 51.03999 | 4.05546 | 12585 ft | 351 kts | 310° |
| 2026-05-06 10:06 | 51.05494 | 4.02534 | 13418 ft | 354 kts | 310° |
| 2026-05-06 10:06 | 51.07016 | 3.99467 | 14228 ft | 357 kts | 310° |
| 2026-05-06 10:07 | 51.08556 | 3.96365 | 14980 ft | 361 kts | 309° |
| 2026-05-06 10:07 | 51.10122 | 3.93205 | 15698 ft | 365 kts | 309° |
| 2026-05-06 10:07 | 51.11692 | 3.90031 | 16363 ft | 370 kts | 309° |
| 2026-05-06 10:07 | 51.13283 | 3.86814 | 17018 ft | 375 kts | 309° |
| 2026-05-06 10:08 | 51.14888 | 3.83558 | 17665 ft | 378 kts | 308° |
| 2026-05-06 10:08 | 51.16501 | 3.80282 | 18314 ft | 382 kts | 308° |
| 2026-05-06 10:08 | 51.18158 | 3.76914 | 18944 ft | 386 kts | 308° |
| 2026-05-06 10:08 | 51.19810 | 3.73549 | 19547 ft | 390 kts | 308° |
| 2026-05-06 10:09 | 51.21464 | 3.70173 | 20148 ft | 393 kts | 307° |
| 2026-05-06 10:09 | 51.22948 | 3.66463 | 20728 ft | 397 kts | 297° |
| 2026-05-06 10:09 | 51.24010 | 3.62421 | 21306 ft | 400 kts | 288° |
| 2026-05-06 10:09 | 51.24692 | 3.58142 | 21882 ft | 402 kts | 282° |
| 2026-05-06 10:10 | 51.25260 | 3.53801 | 22442 ft | 405 kts | 281° |
| 2026-05-06 10:10 | 51.25822 | 3.49399 | 22968 ft | 408 kts | 281° |
| 2026-05-06 10:10 | 51.26400 | 3.44921 | 23456 ft | 412 kts | 281° |
| 2026-05-06 10:10 | 51.26981 | 3.40481 | 23921 ft | 416 kts | 281° |
| 2026-05-06 10:11 | 51.27568 | 3.35965 | 24386 ft | 420 kts | 281° |
| 2026-05-06 10:11 | 51.28165 | 3.31352 | 24870 ft | 424 kts | 280° |
| 2026-05-06 10:11 | 51.28759 | 3.26720 | 25365 ft | 427 kts | 280° |
| 2026-05-06 10:11 | 51.29346 | 3.22130 | 25842 ft | 429 kts | 280° |
| 2026-05-06 10:12 | 51.29945 | 3.17439 | 26311 ft | 432 kts | 280° |
| 2026-05-06 10:12 | 51.30541 | 3.12755 | 26756 ft | 435 kts | 280° |
| 2026-05-06 10:12 | 51.31144 | 3.07989 | 27204 ft | 437 kts | 280° |
| 2026-05-06 10:12 | 51.31742 | 3.03260 | 27621 ft | 440 kts | 280° |
| 2026-05-06 10:13 | 51.32344 | 2.98472 | 28028 ft | 443 kts | 280° |
| 2026-05-06 10:13 | 51.32945 | 2.93665 | 28424 ft | 445 kts | 279° |
| 2026-05-06 10:13 | 51.33551 | 2.88798 | 28813 ft | 448 kts | 280° |
| 2026-05-06 10:13 | 51.34152 | 2.83956 | 29177 ft | 450 kts | 280° |
| 2026-05-06 10:14 | 51.34765 | 2.79003 | 29606 ft | 451 kts | 280° |
| 2026-05-06 10:14 | 51.35363 | 2.74172 | 30124 ft | 450 kts | 280° |
| 2026-05-06 10:14 | 51.35976 | 2.69243 | 30642 ft | 448 kts | 280° |
| 2026-05-06 10:14 | 51.36573 | 2.64423 | 31115 ft | 447 kts | 280° |
| 2026-05-06 10:15 | 51.37067 | 2.60404 | 31485 ft | 446 kts | 280° |
| 2026-05-06 10:15 | 51.37474 | 2.57084 | 31778 ft | 446 kts | 280° |
| 2026-05-06 10:15 | 51.38067 | 2.52228 | 32191 ft | 445 kts | 280° |
| 2026-05-06 10:15 | 51.38649 | 2.47428 | 32607 ft | 444 kts | 280° |
| 2026-05-06 10:16 | 51.39239 | 2.42560 | 33036 ft | 443 kts | 281° |
| 2026-05-06 10:16 | 51.39818 | 2.37762 | 33458 ft | 441 kts | 281° |
| 2026-05-06 10:16 | 51.40393 | 2.32982 | 33880 ft | 439 kts | 280° |
| 2026-05-06 10:16 | 51.40963 | 2.28226 | 34287 ft | 438 kts | 280° |
| 2026-05-06 10:17 | 51.41536 | 2.23480 | 34641 ft | 437 kts | 281° |
| 2026-05-06 10:17 | 51.42121 | 2.18708 | 34968 ft | 436 kts | 281° |
| 2026-05-06 10:17 | 51.42699 | 2.13995 | 35216 ft | 436 kts | 281° |
| 2026-05-06 10:17 | 51.43275 | 2.09266 | 35438 ft | 436 kts | 281° |
| 2026-05-06 10:18 | 51.43851 | 2.04515 | 35638 ft | 437 kts | 281° |
| 2026-05-06 10:18 | 51.44433 | 1.99697 | 35849 ft | 437 kts | 281° |
| 2026-05-06 10:18 | 51.44996 | 1.94969 | 36082 ft | 436 kts | 281° |
| 2026-05-06 10:18 | 51.45551 | 1.90262 | 36299 ft | 435 kts | 280° |
| 2026-05-06 10:19 | 51.46109 | 1.85494 | 36486 ft | 435 kts | 280° |
| 2026-05-06 10:19 | 51.46661 | 1.80746 | 36656 ft | 436 kts | 280° |
| 2026-05-06 10:19 | 51.47215 | 1.75957 | 36816 ft | 437 kts | 280° |
| 2026-05-06 10:19 | 51.47760 | 1.71217 | 36967 ft | 438 kts | 280° |
| 2026-05-06 10:20 | 51.48314 | 1.66376 | 37111 ft | 439 kts | 280° |
| 2026-05-06 10:20 | 51.48859 | 1.61604 | 37248 ft | 440 kts | 280° |
| 2026-05-06 10:20 | 51.49410 | 1.56782 | 37379 ft | 441 kts | 280° |
| 2026-05-06 10:20 | 51.49954 | 1.52006 | 37503 ft | 442 kts | 280° |
| 2026-05-06 10:21 | 51.50501 | 1.47180 | 37626 ft | 442 kts | 280° |
| 2026-05-06 10:21 | 51.51049 | 1.42320 | 37735 ft | 443 kts | 280° |
| 2026-05-06 10:21 | 51.52135 | 1.32621 | 37902 ft | 445 kts | 279° |
| 2026-05-06 10:22 | 51.53215 | 1.22888 | 37912 ft | 445 kts | 279° |
| 2026-05-06 10:22 | 51.54292 | 1.13095 | 37925 ft | 445 kts | 279° |
| 2026-05-06 10:23 | 51.55359 | 1.03343 | 37933 ft | 446 kts | 279° |
| 2026-05-06 10:23 | 51.56414 | 0.93611 | 37933 ft | 446 kts | 279° |
| 2026-05-06 10:24 | 51.57465 | 0.83868 | 37880 ft | 446 kts | 279° |
| 2026-05-06 10:24 | 51.57990 | 0.78962 | 37691 ft | 444 kts | 279° |
| 2026-05-06 10:24 | 51.58504 | 0.74118 | 37466 ft | 442 kts | 279° |
| 2026-05-06 10:25 | 51.59018 | 0.69253 | 37120 ft | 439 kts | 279° |
| 2026-05-06 10:25 | 51.59523 | 0.64468 | 36638 ft | 440 kts | 279° |
| 2026-05-06 10:25 | 51.60033 | 0.59606 | 36031 ft | 443 kts | 279° |
| 2026-05-06 10:25 | 51.60539 | 0.54773 | 35384 ft | 446 kts | 280° |
| 2026-05-06 10:26 | 51.61057 | 0.49818 | 34658 ft | 449 kts | 280° |
| 2026-05-06 10:26 | 51.61570 | 0.44897 | 33863 ft | 450 kts | 280° |
| 2026-05-06 10:26 | 51.62083 | 0.39957 | 33120 ft | 450 kts | 280° |
| 2026-05-06 10:26 | 51.62588 | 0.35057 | 32362 ft | 449 kts | 279° |
| 2026-05-06 10:27 | 51.63091 | 0.30146 | 31588 ft | 449 kts | 278° |
| 2026-05-06 10:27 | 51.63599 | 0.25163 | 30765 ft | 449 kts | 278° |
| 2026-05-06 10:27 | 51.64150 | 0.20271 | 29918 ft | 448 kts | 282° |
| 2026-05-06 10:27 | 51.64922 | 0.15451 | 29076 ft | 447 kts | 286° |
| 2026-05-06 10:28 | 51.65915 | 0.10801 | 28458 ft | 440 kts | 290° |
| 2026-05-06 10:28 | 51.67106 | 0.06285 | 27944 ft | 432 kts | 293° |
| 2026-05-06 10:28 | 51.68311 | 0.01976 | 27434 ft | 425 kts | 294° |
| 2026-05-06 10:28 | 51.69527 | -0.02330 | 26910 ft | 419 kts | 294° |
| 2026-05-06 10:29 | 51.70719 | -0.06557 | 26390 ft | 413 kts | 294° |
| 2026-05-06 10:29 | 51.71885 | -0.10704 | 25874 ft | 408 kts | 294° |
| 2026-05-06 10:29 | 51.73038 | -0.14819 | 25356 ft | 402 kts | 294° |
| 2026-05-06 10:29 | 51.74188 | -0.18938 | 24832 ft | 398 kts | 294° |
| 2026-05-06 10:30 | 51.75307 | -0.22954 | 24320 ft | 393 kts | 293° |
| 2026-05-06 10:30 | 51.76418 | -0.26950 | 23807 ft | 398 kts | 293° |
| 2026-05-06 10:30 | 51.77546 | -0.31021 | 23309 ft | 401 kts | 293° |
| 2026-05-06 10:30 | 51.78688 | -0.35142 | 22810 ft | 399 kts | 294° |
| 2026-05-06 10:31 | 51.79929 | -0.39081 | 22308 ft | 397 kts | 302° |
| 2026-05-06 10:31 | 51.81670 | -0.42484 | 21814 ft | 395 kts | 315° |
| 2026-05-06 10:31 | 51.83833 | -0.45169 | 21317 ft | 394 kts | 327° |
| 2026-05-06 10:31 | 51.86166 | -0.47459 | 20829 ft | 391 kts | 328° |
| 2026-05-06 10:32 | 51.88497 | -0.49682 | 20335 ft | 388 kts | 328° |
| 2026-05-06 10:32 | 51.90814 | -0.51904 | 19835 ft | 385 kts | 328° |
| 2026-05-06 10:32 | 51.93091 | -0.54107 | 19332 ft | 382 kts | 328° |
| 2026-05-06 10:32 | 51.95327 | -0.56281 | 18807 ft | 379 kts | 328° |
| 2026-05-06 10:33 | 51.97583 | -0.58479 | 18271 ft | 376 kts | 328° |
| 2026-05-06 10:33 | 51.99788 | -0.60634 | 17747 ft | 372 kts | 328° |
| 2026-05-06 10:33 | 52.02006 | -0.62806 | 17199 ft | 370 kts | 328° |
| 2026-05-06 10:33 | 52.04210 | -0.64967 | 16666 ft | 366 kts | 328° |
| 2026-05-06 10:34 | 52.06359 | -0.67078 | 16139 ft | 363 kts | 328° |
| 2026-05-06 10:34 | 52.08514 | -0.69195 | 15604 ft | 360 kts | 328° |
| 2026-05-06 10:34 | 52.10632 | -0.71280 | 15077 ft | 358 kts | 328° |
| 2026-05-06 10:34 | 52.12736 | -0.73354 | 14548 ft | 355 kts | 328° |
| 2026-05-06 10:35 | 52.14834 | -0.75423 | 14018 ft | 352 kts | 328° |
| 2026-05-06 10:35 | 52.16912 | -0.77476 | 13489 ft | 349 kts | 328° |
| 2026-05-06 10:35 | 52.18962 | -0.79504 | 12959 ft | 346 kts | 328° |
| 2026-05-06 10:35 | 52.21019 | -0.81539 | 12417 ft | 343 kts | 328° |
| 2026-05-06 10:36 | 52.22990 | -0.83665 | 11877 ft | 340 kts | 320° |
| 2026-05-06 10:36 | 52.24512 | -0.86539 | 11358 ft | 338 kts | 302° |
| 2026-05-06 10:36 | 52.25446 | -0.90032 | 10823 ft | 337 kts | 287° |
| 2026-05-06 10:36 | 52.25980 | -0.93724 | 10399 ft | 335 kts | 283° |
| 2026-05-06 10:37 | 52.26466 | -0.97405 | 10217 ft | 335 kts | 283° |
| 2026-05-06 10:37 | 52.26955 | -1.01119 | 10114 ft | 331 kts | 283° |
| 2026-05-06 10:37 | 52.27433 | -1.04703 | 10008 ft | 315 kts | 284° |
| 2026-05-06 10:37 | 52.27886 | -1.08079 | 9897 ft | 301 kts | 284° |
| 2026-05-06 10:38 | 52.28319 | -1.11334 | 9746 ft | 289 kts | 284° |
| 2026-05-06 10:38 | 52.28736 | -1.14510 | 9504 ft | 282 kts | 284° |
| 2026-05-06 10:38 | 52.29137 | -1.17594 | 9165 ft | 279 kts | 284° |
| 2026-05-06 10:38 | 52.29537 | -1.20669 | 8651 ft | 279 kts | 284° |
| 2026-05-06 10:39 | 52.29936 | -1.23749 | 8097 ft | 277 kts | 284° |
| 2026-05-06 10:39 | 52.30333 | -1.26819 | 7546 ft | 274 kts | 284° |
| 2026-05-06 10:39 | 52.30719 | -1.29812 | 7009 ft | 271 kts | 285° |
| 2026-05-06 10:39 | 52.31104 | -1.32803 | 6470 ft | 268 kts | 285° |
| 2026-05-06 10:40 | 52.31486 | -1.35771 | 5931 ft | 266 kts | 285° |
| 2026-05-06 10:40 | 52.31860 | -1.38685 | 5433 ft | 264 kts | 285° |
| 2026-05-06 10:40 | 52.32237 | -1.41616 | 5024 ft | 265 kts | 285° |
| 2026-05-06 10:40 | 52.32614 | -1.44558 | 4615 ft | 265 kts | 285° |
| 2026-05-06 10:41 | 52.32990 | -1.47501 | 4208 ft | 266 kts | 285° |
| 2026-05-06 10:41 | 52.33364 | -1.50445 | 3825 ft | 265 kts | 285° |
| 2026-05-06 10:41 | 52.33737 | -1.53384 | 3444 ft | 265 kts | 285° |
| 2026-05-06 10:41 | 52.34112 | -1.56343 | 3059 ft | 264 kts | 285° |
| 2026-05-06 10:42 | 52.34479 | -1.59242 | 2682 ft | 264 kts | 285° |
| 2026-05-06 10:42 | 52.34849 | -1.62175 | 2341 ft | 258 kts | 285° |
| 2026-05-06 10:42 | 52.35460 | -1.64834 | 2071 ft | 244 kts | 309° |
| 2026-05-06 10:42 | 52.36683 | -1.66513 | 1962 ft | 223 kts | 336° |
| 2026-05-06 10:43 | 52.38034 | -1.67490 | 1952 ft | 200 kts | 338° |
| 2026-05-06 10:43 | 52.39220 | -1.68387 | 1989 ft | 174 kts | 336° |
| 2026-05-06 10:43 | 52.40233 | -1.69268 | 1828 ft | 159 kts | 334° |
| 2026-05-06 10:44 | 52.41546 | -1.71587 | 1908 ft | 150 kts | 277° |
| 2026-05-06 10:44 | 52.41447 | -1.73286 | 1945 ft | 154 kts | 255° |
| 2026-05-06 10:44 | 52.40830 | -1.74714 | 1956 ft | 157 kts | 225° |
| 2026-05-06 10:44 | 52.39993 | -1.75883 | 1958 ft | 158 kts | 215° |
| 2026-05-06 10:45 | 52.39043 | -1.76804 | 1961 ft | 158 kts | 207° |
| 2026-05-06 10:45 | 52.38040 | -1.77466 | 1960 ft | 157 kts | 194° |
| 2026-05-06 10:45 | 52.36960 | -1.77700 | 1956 ft | 155 kts | 176° |
| 2026-05-06 10:45 | 52.35901 | -1.77476 | 1960 ft | 154 kts | 163° |
| 2026-05-06 10:46 | 52.34882 | -1.76955 | 1951 ft | 152 kts | 149° |
| 2026-05-06 10:46 | 52.33991 | -1.76053 | 1954 ft | 149 kts | 133° |
| 2026-05-06 10:46 | 52.33451 | -1.74692 | 1947 ft | 141 kts | 96° |
| 2026-05-06 10:46 | 52.33676 | -1.73258 | 1955 ft | 133 kts | 46° |
| 2026-05-06 10:47 | 52.34323 | -1.72181 | 1970 ft | 132 kts | 45° |
| 2026-05-06 10:47 | 52.34940 | -1.71087 | 1959 ft | 132 kts | 46° |
| 2026-05-06 10:47 | 52.35556 | -1.69956 | 1956 ft | 132 kts | 46° |
| 2026-05-06 10:47 | 52.36167 | -1.68829 | 1865 ft | 133 kts | 46° |
| 2026-05-06 10:48 | 52.36763 | -1.67719 | 1789 ft | 127 kts | 46° |
| 2026-05-06 10:48 | 52.37427 | -1.66854 | 1657 ft | 124 kts | 12° |
| 2026-05-06 10:48 | 52.38265 | -1.67118 | 1651 ft | 126 kts | 339° |
| 2026-05-06 10:48 | 52.39032 | -1.67811 | 1648 ft | 124 kts | 333° |
| 2026-05-06 10:49 | 52.39758 | -1.68555 | 1510 ft | 124 kts | 331° |
| 2026-05-06 10:49 | 52.40482 | -1.69351 | 1343 ft | 124 kts | 330° |
| 2026-05-06 10:49 | 52.41184 | -1.70134 | 1180 ft | 123 kts | 329° |
| 2026-05-06 10:49 | 52.41900 | -1.70934 | 1015 ft | 123 kts | 329° |
| 2026-05-06 10:50 | 52.42606 | -1.71716 | 854 ft | 122 kts | 327° |
| 2026-05-06 10:50 | 52.43306 | -1.72497 | 679 ft | 122 kts | 326° |
| 2026-05-06 10:50 | 52.44004 | -1.73276 | 498 ft | 121 kts | 327° |
| 2026-05-06 10:50 | 52.44697 | -1.74039 | 344 ft | 117 kts | 327° |
| 2026-05-06 10:51 | 52.45290 | -1.74693 | 329 ft | 79 kts | 324° |
| 2026-05-06 10:51 | 52.45626 | -1.75069 | 320 ft | 48 kts | 326° |
| 2026-05-06 10:51 | 52.45862 | -1.75331 | 314 ft | 35 kts | 326° |
| 2026-05-06 10:51 | 52.46034 | -1.75521 | 307 ft | 22 kts | 325° |
| 2026-05-06 10:52 | 52.46143 | -1.75616 | 305 ft | 13 kts | 17° |
| 2026-05-06 10:52 | 52.46200 | -1.75500 | 308 ft | 12 kts | 56° |
| 2026-05-06 10:52 | 52.46209 | -1.75395 | 313 ft | 8 kts | 132° |
| 2026-05-06 10:52 | 52.46151 | -1.75327 | 314 ft | 12 kts | 146° |
| 2026-05-06 10:53 | 52.46070 | -1.75238 | 316 ft | 15 kts | 146° |
| 2026-05-06 10:53 | 52.45969 | -1.75125 | 318 ft | 19 kts | 145° |
| 2026-05-06 10:53 | 52.45853 | -1.74997 | 318 ft | 21 kts | 145° |
| 2026-05-06 10:53 | 52.45723 | -1.74853 | 321 ft | 22 kts | 146° |
| 2026-05-06 10:54 | 52.45593 | -1.74708 | 322 ft | 22 kts | 146° |
| 2026-05-06 10:54 | 52.45477 | -1.74569 | 324 ft | 18 kts | 127° |
| 2026-05-06 10:54 | 52.45415 | -1.74379 | 324 ft | 20 kts | 117° |
| 2026-05-06 10:54 | 52.45341 | -1.74230 | 322 ft | 15 kts | 146° |
| 2026-05-06 10:55 | 52.45244 | -1.74121 | 322 ft | 17 kts | 145° |
| 2026-05-06 10:55 | 52.45135 | -1.74000 | 322 ft | 19 kts | 146° |
| 2026-05-06 10:55 | 52.45051 | -1.73905 | 325 ft | 9 kts | 140° |
| 2026-05-06 10:55 | 52.45048 | -1.73806 | 327 ft | 10 kts | 54° |
| 2026-05-06 10:56 | 52.45084 | -1.73738 | 328 ft | 8 kts | 28° |
| 2026-05-06 10:56 | 52.45119 | -1.73690 | 330 ft | 4 kts | 20° |
| 2026-05-06 10:56 | 52.45157 | -1.73724 | 329 ft | 6 kts | 324° |
| 2026-05-06 10:56 | 52.45178 | -1.73749 | 328 ft | 0 kts | 326° |